createdAt,value
2023-09-13T00:01:07.549Z,11.35
2023-09-13T00:03:37.955Z,10.80
2023-09-13T00:06:07.824Z,11.25
2023-09-13T00:08:37.623Z,12.18
2023-09-13T00:11:07.967Z,11.57
2023-09-13T00:13:37.767Z,10.57
2023-09-13T00:16:10.596Z,12.23
2023-09-13T00:18:40.681Z,13.02
2023-09-13T00:21:13.025Z,13.18
2023-09-13T00:23:43.425Z,13.60
2023-09-13T00:26:13.593Z,12.85
2023-09-13T00:28:44.525Z,12.20
2023-09-13T00:31:17.133Z,12.85
2023-09-13T00:33:47.239Z,13.80
2023-09-13T00:36:17.171Z,13.32
2023-09-13T00:38:47.913Z,13.25
2023-09-13T00:41:17.745Z,13.80
2023-09-13T00:43:47.553Z,13.20
2023-09-13T00:46:20.347Z,12.57
2023-09-13T00:48:51.126Z,11.10
2023-09-13T00:51:21.649Z,13.32
2023-09-13T00:53:51.856Z,12.88
2023-09-13T00:56:21.972Z,12.25
2023-09-13T00:58:52.866Z,13.48
2023-09-13T01:01:29.405Z,12.90
2023-09-13T01:04:00.023Z,12.98
2023-09-13T01:06:30.303Z,12.88
2023-09-13T01:09:00.186Z,12.05
2023-09-13T01:11:30.841Z,12.32
2023-09-13T01:14:00.722Z,12.38
2023-09-13T01:16:39.572Z,12.27
2023-09-13T01:19:33.788Z,12.23
2023-09-13T01:22:16.218Z,12.02
2023-09-13T01:25:04.702Z,11.50
2023-09-13T01:27:42.749Z,10.27
2023-09-13T01:30:16.610Z,11.32
2023-09-13T01:32:47.631Z,11.27
2023-09-13T01:35:17.455Z,10.10
2023-09-13T01:37:47.309Z,9.95
2023-09-13T01:40:17.192Z,8.85
2023-09-13T01:42:48.154Z,8.35
2023-09-13T01:45:21.042Z,8.88
2023-09-13T01:47:51.260Z,8.60
2023-09-13T01:50:21.900Z,10.40
2023-09-13T01:52:52.531Z,11.60
2023-09-13T01:55:22.353Z,11.57
2023-09-13T01:57:53.372Z,11.68
2023-09-13T02:00:25.966Z,11.43
2023-09-13T02:02:55.856Z,11.35
2023-09-13T02:05:25.803Z,11.32
2023-09-13T02:07:55.716Z,11.23
2023-09-13T02:10:25.745Z,11.85
2023-09-13T02:12:55.586Z,12.02
2023-09-13T02:15:28.448Z,14.68
2023-09-13T02:17:59.806Z,15.13
2023-09-13T02:20:30.002Z,15.30
2023-09-13T02:22:59.798Z,16.60
2023-09-13T02:25:29.689Z,15.25
2023-09-13T02:27:59.594Z,17.58
2023-09-13T02:30:32.127Z,19.85
2023-09-13T02:33:01.944Z,20.70
2023-09-13T02:35:33.647Z,18.73
2023-09-13T02:38:03.806Z,21.45
2023-09-13T02:40:33.636Z,20.38
2023-09-13T02:43:03.477Z,18.85
2023-09-13T02:45:35.971Z,19.73
2023-09-13T02:48:06.042Z,19.35
2023-09-13T02:50:35.974Z,18.27
2023-09-13T02:53:05.802Z,19.40
2023-09-13T02:55:37.665Z,18.40
2023-09-13T02:58:10.092Z,18.98
2023-09-13T03:00:46.003Z,18.85
2023-09-13T03:03:15.977Z,17.92
2023-09-13T03:05:45.835Z,20.95
2023-09-13T03:08:16.092Z,18.92
2023-09-13T03:10:45.843Z,19.63
2023-09-13T03:13:16.501Z,19.20
2023-09-13T03:15:49.116Z,23.60
2023-09-13T03:18:19.215Z,19.73
2023-09-13T03:20:49.027Z,19.52
2023-09-13T03:23:18.862Z,19.08
2023-09-13T03:25:48.771Z,19.10
2023-09-13T03:28:18.638Z,21.30
2023-09-13T03:30:51.110Z,21.42
2023-09-13T03:33:21.002Z,19.50
2023-09-13T03:35:52.095Z,20.70
2023-09-13T03:38:21.924Z,21.58
2023-09-13T03:40:51.779Z,22.58
2023-09-13T03:43:21.779Z,19.75
2023-09-13T03:45:54.386Z,21.38
2023-09-13T03:48:24.454Z,22.38
2023-09-13T03:50:54.491Z,22.83
2023-09-13T03:53:24.430Z,23.20
2023-09-13T03:55:54.588Z,22.27
2023-09-13T03:58:25.074Z,23.25
2023-09-13T04:00:57.792Z,23.63
2023-09-13T04:03:28.079Z,25.60
2023-09-13T04:05:58.018Z,26.98
2023-09-13T04:08:29.267Z,27.27
2023-09-13T04:10:59.115Z,28.40
2023-09-13T04:13:28.964Z,26.58
2023-09-13T04:16:04.366Z,27.17
2023-09-13T04:18:35.359Z,26.92
2023-09-13T04:21:05.165Z,29.33
2023-09-13T04:23:34.982Z,28.40
2023-09-13T04:26:05.314Z,29.88
2023-09-13T04:28:35.645Z,28.42
2023-09-13T04:31:09.686Z,29.50
2023-09-13T04:33:50.413Z,28.58
2023-09-13T04:36:22.603Z,30.17
2023-09-13T04:38:53.656Z,30.80
2023-09-13T04:41:23.510Z,29.63
2023-09-13T04:43:53.334Z,32.70
2023-09-13T04:46:26.735Z,30.77
2023-09-13T04:48:56.695Z,32.72
2023-09-13T04:51:28.106Z,31.50
2023-09-13T04:53:58.251Z,32.28
2023-09-13T04:56:28.069Z,39.88
2023-09-13T04:58:58.049Z,34.55
2023-09-13T05:01:30.773Z,33.95
2023-09-13T05:04:01.884Z,33.42
2023-09-13T05:06:31.891Z,32.15
2023-09-13T05:09:01.671Z,34.40
2023-09-13T05:11:31.505Z,32.40
2023-09-13T05:14:13.041Z,34.90
2023-09-13T05:16:45.566Z,35.22
2023-09-13T05:19:15.366Z,32.30
2023-09-13T05:21:45.394Z,36.50
2023-09-13T05:24:15.215Z,34.38
2023-09-13T05:26:44.969Z,35.25
2023-09-13T05:29:14.794Z,34.70
2023-09-13T05:31:47.355Z,33.45
2023-09-13T05:34:17.307Z,34.20
2023-09-13T05:36:47.200Z,35.20
2023-09-13T05:39:16.967Z,33.45
2023-09-13T05:41:46.804Z,33.83
2023-09-13T05:44:22.203Z,33.80
2023-09-13T05:46:55.164Z,32.30
2023-09-13T05:49:25.053Z,36.07
2023-09-13T05:51:54.937Z,34.83
2023-09-13T05:54:25.314Z,33.13
2023-09-13T05:56:58.417Z,34.83
2023-09-13T05:59:28.202Z,34.75
2023-09-13T06:02:00.871Z,34.00
2023-09-13T06:04:30.725Z,31.70
2023-09-13T06:07:00.585Z,31.48
2023-09-13T06:09:30.425Z,33.95
2023-09-13T06:12:02.955Z,34.05
2023-09-13T06:14:33.278Z,29.92
2023-09-13T06:17:05.746Z,31.92
2023-09-13T06:19:35.639Z,32.40
2023-09-13T06:22:05.589Z,32.10
2023-09-13T06:24:35.555Z,30.42
2023-09-13T06:27:05.418Z,30.15
2023-09-13T06:29:35.528Z,27.75
2023-09-13T06:32:30.430Z,30.73
2023-09-13T06:35:00.786Z,28.10
2023-09-13T06:37:31.765Z,29.58
2023-09-13T06:40:01.805Z,30.08
2023-09-13T06:42:31.943Z,28.20
2023-09-13T06:45:22.111Z,28.52
2023-09-13T06:47:58.111Z,29.92
2023-09-13T06:53:25.831Z,28.63
2023-09-13T06:55:54.702Z,27.88
2023-09-13T06:58:28.921Z,27.42
2023-09-13T07:01:24.813Z,26.77
2023-09-13T07:03:55.806Z,27.58
2023-09-13T07:06:30.188Z,27.02
2023-09-13T07:09:00.032Z,28.58
2023-09-13T07:11:30.000Z,26.23
2023-09-13T07:14:00.652Z,26.42
2023-09-13T07:16:30.872Z,26.65
2023-09-13T07:19:05.205Z,25.35
2023-09-13T07:21:35.077Z,24.77
2023-09-13T07:24:05.407Z,25.35
2023-09-13T07:26:35.551Z,25.80
2023-09-13T07:29:05.717Z,23.85
2023-09-13T07:31:35.550Z,24.75
2023-09-13T07:34:08.564Z,22.83
2023-09-13T07:36:38.432Z,22.80
2023-09-13T07:39:10.524Z,22.58
2023-09-13T07:41:40.323Z,21.40
2023-09-13T07:44:10.256Z,21.00
2023-09-13T07:46:40.163Z,20.13
2023-09-13T07:49:12.720Z,21.73
2023-09-13T07:51:42.507Z,21.60
2023-09-13T07:54:12.332Z,21.08
2023-09-13T07:56:42.157Z,19.20
2023-09-13T07:59:15.064Z,21.60
2023-09-13T08:01:44.948Z,20.53
2023-09-13T08:04:17.438Z,19.60
2023-09-13T08:06:47.290Z,18.38
2023-09-13T08:09:18.790Z,18.65
2023-09-13T08:11:49.652Z,16.90
2023-09-13T08:14:19.638Z,16.63
2023-09-13T08:16:49.600Z,16.25
2023-09-13T08:19:22.377Z,15.38
2023-09-13T08:21:52.163Z,18.10
2023-09-13T08:24:21.979Z,17.50
2023-09-13T08:26:51.767Z,16.45
2023-09-13T08:29:21.546Z,16.40
2023-09-13T08:31:51.320Z,16.00
2023-09-13T08:34:24.206Z,17.25
2023-09-13T08:36:55.075Z,14.57
2023-09-13T08:39:24.943Z,15.88
2023-09-13T08:41:56.788Z,16.17
2023-09-13T08:44:27.128Z,14.98
2023-09-13T08:46:58.603Z,14.45
2023-09-13T08:49:31.637Z,14.02
2023-09-13T08:52:02.410Z,12.73
2023-09-13T08:54:43.567Z,13.80
2023-09-13T08:57:22.486Z,12.18
2023-09-13T08:59:52.311Z,11.90
2023-09-13T09:02:22.793Z,11.90
2023-09-13T09:04:56.152Z,11.35
2023-09-13T09:07:26.109Z,13.07
2023-09-13T09:09:56.396Z,12.75
2023-09-13T09:12:28.075Z,11.90
2023-09-13T09:14:58.137Z,12.38
2023-09-13T09:17:28.219Z,12.35
2023-09-13T09:20:00.874Z,12.50
2023-09-13T09:22:31.592Z,11.60
2023-09-13T09:25:02.010Z,11.45
2023-09-13T09:27:31.884Z,11.80
2023-09-13T09:30:06.155Z,11.18
2023-09-13T09:32:37.151Z,11.63
2023-09-13T09:35:12.276Z,12.35
2023-09-13T09:37:42.186Z,12.23
2023-09-13T09:40:16.214Z,13.02
2023-09-13T09:42:46.114Z,14.23
2023-09-13T09:45:15.970Z,13.30
2023-09-13T09:47:46.084Z,17.02
2023-09-13T09:50:18.519Z,16.42
2023-09-13T09:52:52.956Z,14.48
2023-09-13T09:55:24.697Z,14.52
2023-09-13T09:57:56.650Z,15.15
2023-09-13T10:00:26.546Z,14.75
2023-09-13T10:02:56.614Z,18.50
2023-09-13T10:05:29.207Z,18.15
2023-09-13T10:07:59.633Z,15.00
2023-09-13T10:10:35.011Z,14.65
2023-09-13T10:13:05.143Z,15.18
2023-09-13T10:15:35.139Z,13.95
2023-09-13T10:18:06.015Z,13.40
2023-09-13T10:20:38.901Z,14.45
2023-09-13T10:23:11.635Z,11.83
2023-09-13T10:25:42.322Z,12.53
2023-09-13T10:28:13.541Z,13.10
2023-09-13T10:30:47.843Z,12.23
2023-09-13T10:33:18.232Z,11.63
2023-09-13T10:35:52.214Z,10.82
2023-09-13T10:38:29.015Z,11.63
2023-09-13T10:41:05.268Z,11.25
2023-09-13T10:43:35.987Z,13.15
2023-09-13T10:46:06.672Z,10.27
2023-09-13T10:48:38.297Z,11.43
2023-09-13T10:51:11.454Z,9.30
2023-09-13T10:53:42.719Z,9.88
2023-09-13T10:56:13.790Z,10.68
2023-09-13T10:58:44.681Z,10.10
2023-09-13T11:01:15.323Z,8.57
2023-09-13T11:03:45.956Z,10.20
2023-09-13T11:06:19.122Z,9.45
2023-09-13T11:08:49.065Z,8.77
2023-09-13T11:11:19.560Z,8.98
2023-09-13T11:13:50.852Z,8.07
2023-09-13T11:16:21.193Z,8.73
2023-09-13T11:18:54.068Z,8.80
2023-09-13T11:21:30.256Z,8.50
2023-09-13T11:24:03.548Z,8.38
2023-09-13T11:26:50.125Z,8.30
2023-09-13T11:29:27.273Z,6.13
2023-09-13T11:32:01.285Z,5.57
2023-09-13T11:34:31.919Z,5.25
2023-09-13T11:37:05.891Z,6.00
2023-09-13T11:39:36.479Z,5.90
2023-09-13T11:42:08.714Z,5.88
2023-09-13T11:44:56.712Z,5.63
2023-09-13T11:47:31.472Z,6.03
2023-09-13T11:50:11.368Z,6.00
2023-09-13T11:53:19.592Z,5.72
2023-09-13T11:58:38.564Z,6.03
2023-09-13T12:01:19.795Z,6.05
2023-09-13T12:04:23.897Z,6.05
2023-09-13T12:06:49.527Z,5.88
2023-09-13T12:09:30.348Z,5.95
2023-09-13T12:12:06.264Z,6.88
2023-09-13T12:14:58.215Z,5.68
2023-09-13T12:17:40.795Z,6.53
2023-09-13T12:20:11.849Z,6.32
2023-09-13T12:22:42.953Z,8.85
2023-09-13T12:25:18.436Z,9.55
2023-09-13T12:27:49.734Z,11.68
2023-09-13T12:30:20.899Z,12.45
2023-09-13T12:32:52.508Z,13.35
2023-09-13T12:35:22.739Z,13.63
2023-09-13T12:38:08.006Z,12.40
2023-09-13T12:40:42.890Z,14.35
2023-09-13T12:43:12.986Z,13.88
2023-09-13T12:45:43.063Z,11.98
2023-09-13T12:48:13.721Z,12.80
2023-09-13T12:50:43.997Z,12.27
2023-09-13T12:53:14.079Z,12.50
2023-09-13T12:55:46.925Z,12.73
2023-09-13T12:58:16.784Z,12.68
2023-09-13T13:00:54.657Z,12.45
2023-09-13T13:03:29.493Z,11.65
2023-09-13T13:06:03.331Z,11.10
2023-09-13T13:08:37.812Z,10.57
2023-09-13T13:11:11.015Z,10.43
2023-09-13T13:13:41.994Z,9.48
2023-09-13T13:16:17.844Z,9.65
2023-09-13T13:18:53.490Z,9.00
2023-09-13T13:23:59.218Z,7.88
2023-09-13T13:26:31.970Z,8.05
2023-09-13T13:29:06.753Z,7.40
2023-09-13T13:31:36.673Z,7.80
2023-09-13T13:34:07.063Z,7.72
2023-09-13T13:36:37.130Z,5.90
2023-09-13T13:39:09.797Z,5.82
2023-09-13T13:41:42.363Z,5.72
2023-09-13T13:44:13.331Z,5.28
2023-09-13T13:46:43.358Z,4.50
2023-09-13T13:49:17.848Z,5.55
2023-09-13T13:51:51.696Z,4.72
2023-09-13T13:54:24.112Z,4.40
2023-09-13T13:56:56.857Z,4.80
2023-09-13T13:59:27.012Z,4.78
2023-09-13T14:01:58.150Z,3.90
2023-09-13T14:04:28.244Z,3.78
2023-09-13T14:06:58.096Z,3.95
2023-09-13T14:09:27.936Z,3.67
2023-09-13T14:12:00.378Z,7.68
2023-09-13T14:14:30.229Z,3.70
2023-09-13T14:17:00.041Z,3.13
2023-09-13T14:19:31.235Z,2.90
2023-09-13T14:22:02.011Z,2.78
2023-09-13T14:24:31.954Z,2.78
2023-09-13T14:27:04.526Z,3.10
2023-09-13T14:29:34.436Z,2.90
2023-09-13T14:32:05.437Z,2.72
2023-09-13T14:34:40.630Z,2.75
2023-09-13T14:37:12.077Z,2.80
2023-09-13T14:39:42.093Z,2.30
2023-09-13T14:42:14.905Z,2.90
2023-09-13T14:44:44.763Z,3.03
2023-09-13T14:47:16.608Z,2.80
2023-09-13T14:49:46.560Z,2.40
2023-09-13T14:52:17.850Z,2.80
2023-09-13T14:54:47.850Z,2.70
2023-09-13T14:57:20.372Z,2.28
2023-09-13T14:59:50.205Z,2.80
2023-09-13T15:02:20.120Z,2.58
2023-09-13T15:04:51.721Z,2.30
2023-09-13T15:07:21.805Z,2.50
2023-09-13T15:09:51.990Z,2.10
2023-09-13T15:12:24.944Z,2.17
2023-09-13T15:14:54.818Z,2.13
2023-09-13T15:17:24.781Z,2.30
2023-09-13T15:19:54.675Z,2.22
2023-09-13T15:22:26.679Z,2.20
2023-09-13T15:24:58.589Z,2.38
2023-09-13T15:27:31.264Z,1.83
2023-09-13T15:30:04.542Z,2.20
2023-09-13T15:32:34.510Z,1.70
2023-09-13T15:35:04.509Z,2.22
2023-09-13T15:37:34.401Z,1.83
2023-09-13T15:40:11.050Z,1.90
2023-09-13T15:42:43.560Z,2.30
2023-09-13T15:45:13.780Z,2.60
2023-09-13T15:47:43.726Z,1.98
2023-09-13T15:50:13.772Z,2.60
2023-09-13T15:52:45.708Z,2.50
2023-09-13T15:55:15.537Z,3.38
2023-09-13T15:57:47.998Z,2.63
2023-09-13T16:00:18.100Z,2.80
2023-09-13T16:02:47.940Z,2.60
2023-09-13T16:05:17.827Z,2.70
2023-09-13T16:07:47.649Z,2.70
2023-09-13T16:10:17.655Z,2.90
2023-09-13T16:12:50.051Z,2.75
2023-09-13T16:15:21.440Z,2.53
2023-09-13T16:17:51.443Z,2.90
2023-09-13T16:20:21.739Z,3.00
2023-09-13T16:22:51.788Z,2.85
2023-09-13T16:25:21.644Z,2.58
2023-09-13T16:27:54.106Z,2.40
2023-09-13T16:30:23.919Z,2.60
2023-09-13T16:32:58.194Z,2.40
2023-09-13T16:35:28.553Z,2.40
2023-09-13T16:37:58.603Z,2.40
2023-09-13T16:40:28.696Z,2.63
2023-09-13T16:43:01.420Z,2.30
2023-09-13T16:45:31.249Z,2.80
2023-09-13T16:48:01.077Z,2.60
2023-09-13T16:50:30.986Z,2.60
2023-09-13T16:53:00.858Z,2.33
2023-09-13T16:55:30.804Z,2.72
2023-09-13T16:58:03.252Z,2.80
2023-09-13T17:00:33.097Z,2.55
2023-09-13T17:03:02.964Z,2.60
2023-09-13T17:05:32.960Z,2.80
2023-09-13T17:08:02.724Z,3.00
2023-09-13T17:10:32.554Z,2.38
2023-09-13T17:13:04.936Z,5.40
2023-09-13T17:15:34.749Z,2.63
2023-09-13T17:18:04.729Z,2.70
2023-09-13T17:20:35.491Z,4.28
2023-09-13T17:23:05.374Z,10.38
2023-09-13T17:25:35.143Z,2.60
2023-09-13T17:28:08.491Z,2.67
2023-09-13T17:30:38.713Z,7.72
2023-09-13T17:33:09.420Z,4.10
2023-09-13T17:35:40.781Z,3.22
2023-09-13T17:38:12.788Z,2.88
2023-09-13T17:40:42.570Z,2.58
2023-09-13T17:43:15.390Z,2.72
2023-09-13T17:45:45.565Z,3.05
2023-09-13T17:48:15.480Z,3.00
2023-09-13T17:50:45.322Z,3.60
2023-09-13T17:53:16.442Z,4.40
2023-09-13T17:55:48.191Z,2.70
2023-09-13T17:58:20.798Z,3.00
2023-09-13T18:00:50.772Z,2.90
2023-09-13T18:03:20.737Z,4.57
2023-09-13T18:05:50.715Z,3.40
2023-09-13T18:08:20.802Z,3.08
2023-09-13T18:10:50.756Z,3.63
2023-09-13T18:13:23.145Z,3.10
2023-09-13T18:15:52.999Z,3.40
2023-09-13T18:18:22.902Z,3.00
2023-09-13T18:20:52.770Z,2.95
2023-09-13T18:23:22.567Z,3.03
2023-09-13T18:25:52.406Z,5.80
2023-09-13T18:28:25.007Z,7.45
2023-09-13T18:31:07.222Z,4.20
2023-09-13T18:33:38.710Z,3.90
2023-09-13T18:36:09.378Z,3.80
2023-09-13T18:38:41.763Z,3.60
2023-09-13T18:41:11.558Z,3.25
2023-09-13T18:43:44.345Z,3.30
2023-09-13T18:46:14.280Z,3.25
2023-09-13T18:48:44.761Z,4.18
2023-09-13T18:51:14.771Z,3.40
2023-09-13T18:53:44.597Z,3.17
2023-09-13T18:56:15.249Z,3.65
2023-09-13T18:58:47.918Z,7.13
2023-09-13T19:01:17.917Z,14.60
2023-09-13T19:03:47.905Z,10.18
2023-09-13T19:06:17.842Z,4.47
2023-09-13T19:08:51.827Z,5.63
2023-09-13T19:11:21.749Z,4.00
2023-09-13T19:13:54.657Z,3.65
2023-09-13T19:16:24.619Z,3.33
2023-09-13T19:18:58.132Z,3.65
2023-09-13T19:21:28.030Z,3.60
2023-09-13T19:24:00.932Z,3.63
2023-09-13T19:26:31.309Z,14.23
2023-09-13T19:29:03.759Z,3.40
2023-09-13T19:31:33.778Z,4.35
2023-09-13T19:34:04.075Z,3.65
2023-09-13T19:36:34.408Z,4.07
2023-09-13T19:39:07.284Z,3.72
2023-09-13T19:41:37.352Z,3.80
2023-09-13T19:44:09.957Z,5.63
2023-09-13T19:46:39.963Z,3.40
2023-09-13T19:49:09.813Z,4.05
2023-09-13T19:51:39.834Z,3.70
2023-09-13T19:54:10.331Z,3.53
2023-09-13T19:56:40.245Z,3.72
2023-09-13T19:59:17.696Z,3.00
2023-09-13T20:01:48.241Z,3.40
2023-09-13T20:04:18.190Z,3.17
2023-09-13T20:06:48.510Z,3.75
2023-09-13T20:09:18.288Z,3.42
2023-09-13T20:11:48.189Z,3.25
2023-09-13T20:14:20.666Z,3.38
2023-09-13T20:16:50.600Z,3.40
2023-09-13T20:19:22.644Z,3.10
2023-09-13T20:21:52.576Z,3.10
2023-09-13T20:24:22.521Z,2.90
2023-09-13T20:26:54.895Z,3.50
2023-09-13T20:29:30.710Z,2.90
2023-09-13T20:32:01.123Z,3.03
2023-09-13T20:34:35.859Z,2.67
2023-09-13T20:37:05.873Z,3.00
2023-09-13T20:39:36.262Z,2.65
2023-09-13T20:42:09.520Z,3.10
2023-09-13T20:44:42.109Z,3.08
2023-09-13T20:47:12.384Z,3.20
2023-09-13T20:49:42.463Z,2.80
2023-09-13T20:52:12.862Z,2.90
2023-09-13T20:54:42.708Z,2.45
2023-09-13T20:57:09.981Z,2.50
2023-09-13T20:59:42.716Z,3.00
2023-09-13T21:02:12.549Z,2.83
2023-09-13T21:04:42.464Z,3.20
2023-09-13T21:07:12.442Z,3.40
2023-09-13T21:09:42.417Z,2.70
2023-09-13T21:12:13.006Z,2.40
2023-09-13T21:14:45.394Z,2.53
2023-09-13T21:17:15.485Z,3.00
2023-09-13T21:19:45.517Z,2.90
2023-09-13T21:22:15.621Z,2.95
2023-09-13T21:24:48.258Z,2.60
2023-09-13T21:27:18.264Z,2.65
2023-09-13T21:29:50.724Z,3.10
2023-09-13T21:32:23.669Z,2.83
2023-09-13T21:35:02.320Z,2.85
2023-09-13T21:37:35.049Z,2.60
2023-09-13T21:40:07.791Z,2.80
2023-09-13T21:42:37.729Z,3.08
2023-09-13T21:45:11.610Z,2.88
2023-09-13T21:47:41.561Z,2.92
2023-09-13T21:50:12.139Z,2.40
2023-09-13T21:52:42.784Z,2.90
2023-09-13T21:55:12.814Z,2.70
2023-09-13T21:57:42.757Z,2.90
2023-09-13T22:00:17.602Z,2.90
2023-09-13T22:02:47.862Z,2.72
2023-09-13T22:05:23.472Z,3.10
2023-09-13T22:07:53.748Z,3.13
2023-09-13T22:10:23.581Z,2.97
2023-09-13T22:12:55.327Z,2.85
2023-09-13T22:15:28.922Z,3.50
2023-09-13T22:17:58.878Z,2.90
2023-09-13T22:20:28.829Z,2.90
2023-09-13T22:22:58.805Z,2.70
2023-09-13T22:25:28.674Z,3.20
2023-09-13T22:27:58.716Z,3.35
2023-09-13T22:30:32.393Z,3.20
2023-09-13T22:33:02.861Z,3.15
2023-09-13T22:35:32.769Z,3.10
2023-09-13T22:38:02.667Z,3.45
2023-09-13T22:40:32.781Z,3.30
2023-09-13T22:43:03.074Z,3.10
2023-09-13T22:45:39.153Z,3.40
2023-09-13T22:48:11.195Z,2.97
2023-09-13T22:50:43.343Z,3.70
2023-09-13T22:53:13.360Z,3.20
2023-09-13T22:55:52.487Z,3.25
2023-09-13T22:58:22.709Z,3.92
2023-09-13T23:00:55.216Z,3.30
2023-09-13T23:03:37.993Z,6.80
2023-09-13T23:06:13.691Z,3.22
2023-09-13T23:08:43.686Z,3.40
2023-09-13T23:11:15.484Z,3.50
2023-09-13T23:13:50.179Z,3.20
2023-09-13T23:16:23.414Z,3.33
2023-09-13T23:18:53.348Z,3.35
2023-09-13T23:21:23.130Z,3.78
2023-09-13T23:23:52.931Z,3.35
2023-09-13T23:26:22.835Z,3.00
2023-09-13T23:28:54.393Z,3.75
2023-09-13T23:31:31.344Z,3.70
2023-09-13T23:34:01.350Z,3.72
2023-09-13T23:36:31.301Z,3.35
2023-09-13T23:39:01.102Z,3.53
2023-09-13T23:41:31.553Z,3.80
2023-09-13T23:44:01.426Z,3.70
2023-09-13T23:46:34.178Z,3.63
2023-09-13T23:49:04.012Z,3.55
2023-09-13T23:51:33.894Z,3.88
2023-09-13T23:54:03.743Z,3.85
2023-09-13T23:56:30.897Z,3.75
2023-09-13T23:59:00.665Z,3.70
